sensor_id;sensor_type;location;lat;lon;timestamp;P1;durP1;ratioP1;P2;durP2;ratioP2
78612;SDS011;67933;51.060;3.638;2023-06-26T00:00:46;6.13;;;3.30;;
78612;SDS011;67933;51.060;3.638;2023-06-26T00:03:12;6.22;;;3.13;;
78612;SDS011;67933;51.060;3.638;2023-06-26T00:05:40;5.85;;;2.97;;
78612;SDS011;67933;51.060;3.638;2023-06-26T00:08:06;7.55;;;3.35;;
78612;SDS011;67933;51.060;3.638;2023-06-26T00:10:32;4.40;;;2.80;;
78612;SDS011;67933;51.060;3.638;2023-06-26T00:12:59;5.32;;;3.55;;
78612;SDS011;67933;51.060;3.638;2023-06-26T00:15:25;9.70;;;3.40;;
78612;SDS011;67933;51.060;3.638;2023-06-26T00:17:50;6.85;;;3.30;;
78612;SDS011;67933;51.060;3.638;2023-06-26T00:20:16;5.35;;;3.22;;
78612;SDS011;67933;51.060;3.638;2023-06-26T00:22:41;5.78;;;3.47;;
78612;SDS011;67933;51.060;3.638;2023-06-26T00:25:07;7.47;;;3.60;;
78612;SDS011;67933;51.060;3.638;2023-06-26T00:27:33;5.45;;;3.33;;
78612;SDS011;67933;51.060;3.638;2023-06-26T00:29:58;7.50;;;3.60;;
78612;SDS011;67933;51.060;3.638;2023-06-26T00:32:24;6.13;;;3.35;;
78612;SDS011;67933;51.060;3.638;2023-06-26T00:34:49;6.32;;;3.40;;
78612;SDS011;67933;51.060;3.638;2023-06-26T00:37:15;9.60;;;3.55;;
78612;SDS011;67933;51.060;3.638;2023-06-26T00:39:40;6.85;;;3.30;;
78612;SDS011;67933;51.060;3.638;2023-06-26T00:42:06;7.10;;;3.47;;
78612;SDS011;67933;51.060;3.638;2023-06-26T00:44:31;9.43;;;3.45;;
78612;SDS011;67933;51.060;3.638;2023-06-26T00:46:57;6.05;;;3.50;;
78612;SDS011;67933;51.060;3.638;2023-06-26T00:49:22;6.95;;;3.30;;
78612;SDS011;67933;51.060;3.638;2023-06-26T00:51:48;9.00;;;3.78;;
78612;SDS011;67933;51.060;3.638;2023-06-26T00:54:14;7.55;;;3.60;;
78612;SDS011;67933;51.060;3.638;2023-06-26T00:56:45;6.47;;;3.60;;
78612;SDS011;67933;51.060;3.638;2023-06-26T00:59:10;6.85;;;3.63;;
78612;SDS011;67933;51.060;3.638;2023-06-26T01:01:36;5.63;;;3.42;;
78612;SDS011;67933;51.060;3.638;2023-06-26T01:04:01;5.82;;;4.00;;
78612;SDS011;67933;51.060;3.638;2023-06-26T01:06:27;6.30;;;3.28;;
78612;SDS011;67933;51.060;3.638;2023-06-26T01:08:57;7.35;;;3.30;;
78612;SDS011;67933;51.060;3.638;2023-06-26T01:11:23;6.57;;;3.53;;
78612;SDS011;67933;51.060;3.638;2023-06-26T01:13:48;8.52;;;3.45;;
78612;SDS011;67933;51.060;3.638;2023-06-26T01:18:44;10.20;;;3.83;;
78612;SDS011;67933;51.060;3.638;2023-06-26T01:21:11;8.27;;;3.78;;
78612;SDS011;67933;51.060;3.638;2023-06-26T01:23:49;7.95;;;4.00;;
78612;SDS011;67933;51.060;3.638;2023-06-26T01:26:26;8.93;;;3.72;;
78612;SDS011;67933;51.060;3.638;2023-06-26T01:28:53;9.48;;;3.85;;
78612;SDS011;67933;51.060;3.638;2023-06-26T01:31:21;8.85;;;4.07;;
78612;SDS011;67933;51.060;3.638;2023-06-26T01:33:47;8.15;;;4.28;;
78612;SDS011;67933;51.060;3.638;2023-06-26T01:36:12;10.98;;;4.35;;
78612;SDS011;67933;51.060;3.638;2023-06-26T01:38:38;8.98;;;4.20;;
78612;SDS011;67933;51.060;3.638;2023-06-26T01:41:03;8.68;;;4.50;;
78612;SDS011;67933;51.060;3.638;2023-06-26T01:46:21;10.77;;;4.88;;
78612;SDS011;67933;51.060;3.638;2023-06-26T01:48:56;11.70;;;4.45;;
78612;SDS011;67933;51.060;3.638;2023-06-26T01:51:30;12.68;;;4.95;;
78612;SDS011;67933;51.060;3.638;2023-06-26T01:53:59;10.57;;;4.00;;
78612;SDS011;67933;51.060;3.638;2023-06-26T01:56:26;8.70;;;4.55;;
78612;SDS011;67933;51.060;3.638;2023-06-26T01:58:54;11.82;;;4.78;;
78612;SDS011;67933;51.060;3.638;2023-06-26T02:01:20;10.90;;;4.75;;
78612;SDS011;67933;51.060;3.638;2023-06-26T02:03:47;13.27;;;4.50;;
78612;SDS011;67933;51.060;3.638;2023-06-26T02:06:12;10.63;;;4.35;;
78612;SDS011;67933;51.060;3.638;2023-06-26T02:08:38;14.30;;;5.30;;
78612;SDS011;67933;51.060;3.638;2023-06-26T02:11:03;13.65;;;5.53;;
78612;SDS011;67933;51.060;3.638;2023-06-26T02:13:28;16.27;;;5.50;;
78612;SDS011;67933;51.060;3.638;2023-06-26T02:15:54;12.20;;;4.72;;
78612;SDS011;67933;51.060;3.638;2023-06-26T02:18:19;11.88;;;5.13;;
78612;SDS011;67933;51.060;3.638;2023-06-26T02:20:47;11.52;;;4.82;;
78612;SDS011;67933;51.060;3.638;2023-06-26T02:23:13;12.40;;;4.82;;
78612;SDS011;67933;51.060;3.638;2023-06-26T02:25:41;13.02;;;4.97;;
78612;SDS011;67933;51.060;3.638;2023-06-26T02:28:07;14.93;;;5.90;;
78612;SDS011;67933;51.060;3.638;2023-06-26T02:30:32;14.52;;;5.05;;
78612;SDS011;67933;51.060;3.638;2023-06-26T02:32:57;14.95;;;4.68;;
78612;SDS011;67933;51.060;3.638;2023-06-26T02:35:23;11.52;;;4.85;;
78612;SDS011;67933;51.060;3.638;2023-06-26T02:37:48;14.23;;;4.65;;
78612;SDS011;67933;51.060;3.638;2023-06-26T02:40:14;11.60;;;4.95;;
78612;SDS011;67933;51.060;3.638;2023-06-26T02:42:39;17.70;;;5.68;;
78612;SDS011;67933;51.060;3.638;2023-06-26T02:45:05;15.65;;;5.05;;
78612;SDS011;67933;51.060;3.638;2023-06-26T02:47:30;13.63;;;5.32;;
78612;SDS011;67933;51.060;3.638;2023-06-26T02:49:56;13.95;;;4.80;;
78612;SDS011;67933;51.060;3.638;2023-06-26T02:52:21;13.80;;;5.00;;
78612;SDS011;67933;51.060;3.638;2023-06-26T02:54:46;14.38;;;5.60;;
78612;SDS011;67933;51.060;3.638;2023-06-26T02:57:12;16.63;;;5.15;;
78612;SDS011;67933;51.060;3.638;2023-06-26T02:59:39;16.48;;;5.18;;
78612;SDS011;67933;51.060;3.638;2023-06-26T03:02:05;19.83;;;5.90;;
78612;SDS011;67933;51.060;3.638;2023-06-26T03:04:30;9.90;;;4.55;;
78612;SDS011;67933;51.060;3.638;2023-06-26T03:06:56;15.43;;;5.32;;
78612;SDS011;67933;51.060;3.638;2023-06-26T03:09:21;10.10;;;4.40;;
78612;SDS011;67933;51.060;3.638;2023-06-26T03:11:47;16.17;;;5.25;;
78612;SDS011;67933;51.060;3.638;2023-06-26T03:14:12;13.40;;;4.72;;
78612;SDS011;67933;51.060;3.638;2023-06-26T03:16:37;13.05;;;5.18;;
78612;SDS011;67933;51.060;3.638;2023-06-26T03:19:03;12.57;;;5.25;;
78612;SDS011;67933;51.060;3.638;2023-06-26T03:21:29;12.77;;;4.90;;
78612;SDS011;67933;51.060;3.638;2023-06-26T03:23:55;16.58;;;5.70;;
78612;SDS011;67933;51.060;3.638;2023-06-26T03:26:20;11.23;;;4.90;;
78612;SDS011;67933;51.060;3.638;2023-06-26T03:28:53;12.57;;;5.28;;
78612;SDS011;67933;51.060;3.638;2023-06-26T03:31:20;16.00;;;4.80;;
78612;SDS011;67933;51.060;3.638;2023-06-26T03:33:46;13.90;;;4.43;;
78612;SDS011;67933;51.060;3.638;2023-06-26T03:36:11;17.13;;;5.07;;
78612;SDS011;67933;51.060;3.638;2023-06-26T03:38:37;13.98;;;5.22;;
78612;SDS011;67933;51.060;3.638;2023-06-26T03:41:02;11.68;;;5.70;;
78612;SDS011;67933;51.060;3.638;2023-06-26T03:43:28;13.48;;;4.78;;
78612;SDS011;67933;51.060;3.638;2023-06-26T03:45:54;13.60;;;5.25;;
78612;SDS011;67933;51.060;3.638;2023-06-26T03:48:19;11.18;;;4.47;;
78612;SDS011;67933;51.060;3.638;2023-06-26T03:50:45;16.65;;;5.30;;
78612;SDS011;67933;51.060;3.638;2023-06-26T03:53:10;13.75;;;5.03;;
78612;SDS011;67933;51.060;3.638;2023-06-26T03:55:37;16.85;;;4.60;;
78612;SDS011;67933;51.060;3.638;2023-06-26T03:58:03;13.15;;;4.53;;
78612;SDS011;67933;51.060;3.638;2023-06-26T04:00:29;15.25;;;4.90;;
78612;SDS011;67933;51.060;3.638;2023-06-26T04:02:54;11.00;;;4.05;;
78612;SDS011;67933;51.060;3.638;2023-06-26T04:05:20;18.17;;;4.38;;
78612;SDS011;67933;51.060;3.638;2023-06-26T04:07:45;16.10;;;4.80;;
78612;SDS011;67933;51.060;3.638;2023-06-26T04:10:14;13.85;;;4.28;;
78612;SDS011;67933;51.060;3.638;2023-06-26T04:12:39;16.08;;;5.25;;
78612;SDS011;67933;51.060;3.638;2023-06-26T04:15:05;13.80;;;4.32;;
78612;SDS011;67933;51.060;3.638;2023-06-26T04:17:31;20.67;;;4.90;;
78612;SDS011;67933;51.060;3.638;2023-06-26T04:19:56;13.23;;;3.95;;
78612;SDS011;67933;51.060;3.638;2023-06-26T04:22:21;9.00;;;3.72;;
78612;SDS011;67933;51.060;3.638;2023-06-26T04:24:47;13.38;;;4.28;;
78612;SDS011;67933;51.060;3.638;2023-06-26T04:27:12;15.77;;;4.35;;
78612;SDS011;67933;51.060;3.638;2023-06-26T04:29:39;10.35;;;3.65;;
78612;SDS011;67933;51.060;3.638;2023-06-26T04:32:04;10.55;;;4.35;;
78612;SDS011;67933;51.060;3.638;2023-06-26T04:34:30;11.95;;;3.67;;
78612;SDS011;67933;51.060;3.638;2023-06-26T04:36:59;11.40;;;4.53;;
78612;SDS011;67933;51.060;3.638;2023-06-26T04:39:24;12.32;;;3.90;;
78612;SDS011;67933;51.060;3.638;2023-06-26T04:41:50;11.07;;;3.42;;
78612;SDS011;67933;51.060;3.638;2023-06-26T04:44:15;12.82;;;3.70;;
78612;SDS011;67933;51.060;3.638;2023-06-26T04:46:41;10.82;;;3.38;;
78612;SDS011;67933;51.060;3.638;2023-06-26T04:49:07;11.38;;;3.55;;
78612;SDS011;67933;51.060;3.638;2023-06-26T04:51:33;11.05;;;3.67;;
78612;SDS011;67933;51.060;3.638;2023-06-26T04:54:05;16.00;;;3.88;;
78612;SDS011;67933;51.060;3.638;2023-06-26T04:56:32;10.48;;;3.45;;
78612;SDS011;67933;51.060;3.638;2023-06-26T04:58:57;12.73;;;3.58;;
78612;SDS011;67933;51.060;3.638;2023-06-26T05:01:22;11.60;;;3.40;;
78612;SDS011;67933;51.060;3.638;2023-06-26T05:03:48;10.15;;;2.95;;
78612;SDS011;67933;51.060;3.638;2023-06-26T05:06:13;14.02;;;3.83;;
78612;SDS011;67933;51.060;3.638;2023-06-26T05:08:38;9.18;;;2.75;;
78612;SDS011;67933;51.060;3.638;2023-06-26T05:11:04;8.73;;;2.97;;
78612;SDS011;67933;51.060;3.638;2023-06-26T05:13:29;9.48;;;3.20;;
78612;SDS011;67933;51.060;3.638;2023-06-26T05:15:55;10.57;;;3.08;;
78612;SDS011;67933;51.060;3.638;2023-06-26T05:18:20;9.40;;;2.78;;
78612;SDS011;67933;51.060;3.638;2023-06-26T05:20:45;8.48;;;2.70;;
78612;SDS011;67933;51.060;3.638;2023-06-26T05:23:11;9.48;;;2.90;;
78612;SDS011;67933;51.060;3.638;2023-06-26T05:25:37;9.15;;;2.92;;
78612;SDS011;67933;51.060;3.638;2023-06-26T05:28:03;12.98;;;2.83;;
78612;SDS011;67933;51.060;3.638;2023-06-26T05:30:35;12.00;;;2.80;;
78612;SDS011;67933;51.060;3.638;2023-06-26T05:33:01;10.82;;;2.97;;
78612;SDS011;67933;51.060;3.638;2023-06-26T05:35:28;9.27;;;2.58;;
78612;SDS011;67933;51.060;3.638;2023-06-26T05:37:55;10.38;;;2.75;;
78612;SDS011;67933;51.060;3.638;2023-06-26T05:40:21;6.25;;;2.33;;
78612;SDS011;67933;51.060;3.638;2023-06-26T05:42:46;5.55;;;2.47;;
78612;SDS011;67933;51.060;3.638;2023-06-26T05:45:12;4.97;;;2.35;;
78612;SDS011;67933;51.060;3.638;2023-06-26T05:47:38;7.15;;;2.03;;
78612;SDS011;67933;51.060;3.638;2023-06-26T05:50:03;7.72;;;2.35;;
78612;SDS011;67933;51.060;3.638;2023-06-26T05:52:29;7.70;;;2.92;;
78612;SDS011;67933;51.060;3.638;2023-06-26T05:54:55;7.88;;;2.80;;
78612;SDS011;67933;51.060;3.638;2023-06-26T05:57:24;7.13;;;2.15;;
78612;SDS011;67933;51.060;3.638;2023-06-26T05:59:54;6.25;;;2.55;;
78612;SDS011;67933;51.060;3.638;2023-06-26T06:02:20;8.75;;;2.67;;
78612;SDS011;67933;51.060;3.638;2023-06-26T06:04:45;6.40;;;2.80;;
78612;SDS011;67933;51.060;3.638;2023-06-26T06:07:11;7.72;;;2.30;;
78612;SDS011;67933;51.060;3.638;2023-06-26T06:09:37;6.85;;;2.17;;
78612;SDS011;67933;51.060;3.638;2023-06-26T06:12:03;5.88;;;1.95;;
78612;SDS011;67933;51.060;3.638;2023-06-26T06:14:32;13.15;;;2.25;;
78612;SDS011;67933;51.060;3.638;2023-06-26T06:16:58;5.72;;;2.00;;
78612;SDS011;67933;51.060;3.638;2023-06-26T06:19:23;4.88;;;1.50;;
78612;SDS011;67933;51.060;3.638;2023-06-26T06:21:49;4.68;;;1.70;;
78612;SDS011;67933;51.060;3.638;2023-06-26T06:24:14;3.97;;;1.80;;
78612;SDS011;67933;51.060;3.638;2023-06-26T06:26:39;5.65;;;1.80;;
78612;SDS011;67933;51.060;3.638;2023-06-26T06:29:05;6.05;;;1.60;;
78612;SDS011;67933;51.060;3.638;2023-06-26T06:31:31;5.30;;;1.67;;
78612;SDS011;67933;51.060;3.638;2023-06-26T06:33:56;5.72;;;2.00;;
78612;SDS011;67933;51.060;3.638;2023-06-26T06:36:22;4.88;;;1.70;;
78612;SDS011;67933;51.060;3.638;2023-06-26T06:38:47;6.35;;;1.40;;
78612;SDS011;67933;51.060;3.638;2023-06-26T06:41:12;4.85;;;1.55;;
78612;SDS011;67933;51.060;3.638;2023-06-26T06:43:38;3.55;;;1.45;;
78612;SDS011;67933;51.060;3.638;2023-06-26T06:46:04;5.47;;;2.03;;
78612;SDS011;67933;51.060;3.638;2023-06-26T06:48:30;7.38;;;1.75;;
78612;SDS011;67933;51.060;3.638;2023-06-26T06:50:56;5.38;;;1.73;;
78612;SDS011;67933;51.060;3.638;2023-06-26T06:53:21;7.00;;;1.35;;
78612;SDS011;67933;51.060;3.638;2023-06-26T06:55:48;4.93;;;1.58;;
78612;SDS011;67933;51.060;3.638;2023-06-26T06:58:13;3.80;;;1.50;;
78612;SDS011;67933;51.060;3.638;2023-06-26T07:00:39;4.65;;;1.35;;
78612;SDS011;67933;51.060;3.638;2023-06-26T07:03:04;6.10;;;1.50;;
78612;SDS011;67933;51.060;3.638;2023-06-26T07:05:30;7.30;;;1.58;;
78612;SDS011;67933;51.060;3.638;2023-06-26T07:07:55;5.78;;;1.52;;
78612;SDS011;67933;51.060;3.638;2023-06-26T07:10:20;5.75;;;1.35;;
78612;SDS011;67933;51.060;3.638;2023-06-26T07:12:46;4.00;;;1.52;;
78612;SDS011;67933;51.060;3.638;2023-06-26T07:15:11;5.03;;;1.85;;
78612;SDS011;67933;51.060;3.638;2023-06-26T07:17:37;3.55;;;1.40;;
78612;SDS011;67933;51.060;3.638;2023-06-26T07:20:05;2.92;;;1.27;;
78612;SDS011;67933;51.060;3.638;2023-06-26T07:22:32;5.22;;;1.38;;
78612;SDS011;67933;51.060;3.638;2023-06-26T07:24:57;4.55;;;1.30;;
78612;SDS011;67933;51.060;3.638;2023-06-26T07:27:23;5.70;;;1.63;;
78612;SDS011;67933;51.060;3.638;2023-06-26T07:29:48;4.43;;;1.50;;
78612;SDS011;67933;51.060;3.638;2023-06-26T07:32:14;5.68;;;1.38;;
78612;SDS011;67933;51.060;3.638;2023-06-26T07:34:39;4.65;;;1.70;;
78612;SDS011;67933;51.060;3.638;2023-06-26T07:37:05;4.55;;;1.55;;
78612;SDS011;67933;51.060;3.638;2023-06-26T07:39:30;4.32;;;1.45;;
78612;SDS011;67933;51.060;3.638;2023-06-26T07:41:56;3.50;;;1.73;;
78612;SDS011;67933;51.060;3.638;2023-06-26T07:44:23;5.40;;;1.63;;
78612;SDS011;67933;51.060;3.638;2023-06-26T07:46:48;5.15;;;1.45;;
78612;SDS011;67933;51.060;3.638;2023-06-26T07:49:14;4.60;;;1.33;;
78612;SDS011;67933;51.060;3.638;2023-06-26T07:51:39;4.97;;;1.50;;
78612;SDS011;67933;51.060;3.638;2023-06-26T07:54:04;5.57;;;1.50;;
78612;SDS011;67933;51.060;3.638;2023-06-26T07:56:30;4.47;;;1.70;;
78612;SDS011;67933;51.060;3.638;2023-06-26T07:58:55;2.97;;;1.30;;
78612;SDS011;67933;51.060;3.638;2023-06-26T08:01:23;4.53;;;1.17;;
78612;SDS011;67933;51.060;3.638;2023-06-26T08:03:49;6.65;;;1.45;;
78612;SDS011;67933;51.060;3.638;2023-06-26T08:06:15;5.18;;;1.52;;
78612;SDS011;67933;51.060;3.638;2023-06-26T08:08:40;6.20;;;2.05;;
78612;SDS011;67933;51.060;3.638;2023-06-26T08:11:06;5.10;;;1.63;;
78612;SDS011;67933;51.060;3.638;2023-06-26T08:13:31;3.22;;;1.02;;
78612;SDS011;67933;51.060;3.638;2023-06-26T08:15:56;4.10;;;1.75;;
78612;SDS011;67933;51.060;3.638;2023-06-26T08:18:22;4.22;;;1.50;;
78612;SDS011;67933;51.060;3.638;2023-06-26T08:20:47;4.10;;;1.27;;
78612;SDS011;67933;51.060;3.638;2023-06-26T08:23:13;5.40;;;1.55;;
78612;SDS011;67933;51.060;3.638;2023-06-26T08:25:38;3.70;;;1.33;;
78612;SDS011;67933;51.060;3.638;2023-06-26T08:28:03;5.43;;;1.50;;
78612;SDS011;67933;51.060;3.638;2023-06-26T08:30:29;3.38;;;1.20;;
78612;SDS011;67933;51.060;3.638;2023-06-26T08:32:58;4.30;;;1.38;;
78612;SDS011;67933;51.060;3.638;2023-06-26T08:35:23;5.32;;;1.60;;
78612;SDS011;67933;51.060;3.638;2023-06-26T08:37:49;2.92;;;1.40;;
78612;SDS011;67933;51.060;3.638;2023-06-26T08:40:17;3.80;;;1.35;;
78612;SDS011;67933;51.060;3.638;2023-06-26T08:42:46;3.78;;;1.40;;
78612;SDS011;67933;51.060;3.638;2023-06-26T08:45:12;5.90;;;1.58;;
78612;SDS011;67933;51.060;3.638;2023-06-26T08:47:39;3.42;;;1.35;;
78612;SDS011;67933;51.060;3.638;2023-06-26T08:50:12;3.67;;;1.30;;
78612;SDS011;67933;51.060;3.638;2023-06-26T08:55:29;3.30;;;1.38;;
78612;SDS011;67933;51.060;3.638;2023-06-26T08:57:58;3.28;;;1.13;;
78612;SDS011;67933;51.060;3.638;2023-06-26T09:00:24;4.40;;;1.23;;
78612;SDS011;67933;51.060;3.638;2023-06-26T09:02:50;4.65;;;1.50;;
78612;SDS011;67933;51.060;3.638;2023-06-26T09:05:15;4.68;;;1.60;;
78612;SDS011;67933;51.060;3.638;2023-06-26T09:07:40;3.05;;;1.30;;
78612;SDS011;67933;51.060;3.638;2023-06-26T09:10:06;4.57;;;1.38;;
78612;SDS011;67933;51.060;3.638;2023-06-26T09:12:32;3.42;;;1.10;;
78612;SDS011;67933;51.060;3.638;2023-06-26T09:14:58;4.45;;;1.30;;
78612;SDS011;67933;51.060;3.638;2023-06-26T09:17:33;5.55;;;1.48;;
78612;SDS011;67933;51.060;3.638;2023-06-26T09:20:05;6.18;;;1.60;;
78612;SDS011;67933;51.060;3.638;2023-06-26T09:22:33;4.68;;;1.38;;
78612;SDS011;67933;51.060;3.638;2023-06-26T09:25:01;3.17;;;1.30;;
78612;SDS011;67933;51.060;3.638;2023-06-26T09:27:27;2.95;;;1.30;;
78612;SDS011;67933;51.060;3.638;2023-06-26T09:29:53;4.47;;;1.40;;
78612;SDS011;67933;51.060;3.638;2023-06-26T09:32:18;2.15;;;1.05;;
78612;SDS011;67933;51.060;3.638;2023-06-26T09:34:43;4.97;;;1.60;;
78612;SDS011;67933;51.060;3.638;2023-06-26T09:37:12;3.70;;;1.25;;
78612;SDS011;67933;51.060;3.638;2023-06-26T09:39:39;4.20;;;1.15;;
78612;SDS011;67933;51.060;3.638;2023-06-26T09:42:04;4.15;;;1.30;;
78612;SDS011;67933;51.060;3.638;2023-06-26T09:44:32;3.10;;;1.10;;
78612;SDS011;67933;51.060;3.638;2023-06-26T09:47:01;3.78;;;1.20;;
78612;SDS011;67933;51.060;3.638;2023-06-26T09:49:28;4.18;;;1.13;;
78612;SDS011;67933;51.060;3.638;2023-06-26T09:51:53;2.95;;;1.38;;
78612;SDS011;67933;51.060;3.638;2023-06-26T09:54:19;5.18;;;1.40;;
78612;SDS011;67933;51.060;3.638;2023-06-26T09:56:46;3.60;;;1.30;;
78612;SDS011;67933;51.060;3.638;2023-06-26T09:59:12;3.45;;;1.33;;
78612;SDS011;67933;51.060;3.638;2023-06-26T10:01:43;4.25;;;1.42;;
78612;SDS011;67933;51.060;3.638;2023-06-26T10:04:10;3.17;;;1.40;;
78612;SDS011;67933;51.060;3.638;2023-06-26T10:06:37;5.40;;;1.30;;
78612;SDS011;67933;51.060;3.638;2023-06-26T10:09:06;5.22;;;1.20;;
78612;SDS011;67933;51.060;3.638;2023-06-26T10:11:40;2.55;;;1.08;;
78612;SDS011;67933;51.060;3.638;2023-06-26T10:14:10;3.90;;;1.50;;
78612;SDS011;67933;51.060;3.638;2023-06-26T10:16:37;6.32;;;1.20;;
78612;SDS011;67933;51.060;3.638;2023-06-26T10:19:05;4.78;;;1.60;;
78612;SDS011;67933;51.060;3.638;2023-06-26T10:21:36;3.28;;;1.45;;
78612;SDS011;67933;51.060;3.638;2023-06-26T10:24:04;2.38;;;1.25;;
78612;SDS011;67933;51.060;3.638;2023-06-26T10:26:31;2.22;;;1.45;;
78612;SDS011;67933;51.060;3.638;2023-06-26T10:29:02;2.55;;;1.15;;
78612;SDS011;67933;51.060;3.638;2023-06-26T10:31:29;3.97;;;1.50;;
78612;SDS011;67933;51.060;3.638;2023-06-26T10:33:56;4.95;;;1.13;;
78612;SDS011;67933;51.060;3.638;2023-06-26T10:36:27;3.25;;;1.20;;
78612;SDS011;67933;51.060;3.638;2023-06-26T10:39:27;4.50;;;1.30;;
78612;SDS011;67933;51.060;3.638;2023-06-26T10:41:45;2.78;;;1.20;;
78612;SDS011;67933;51.060;3.638;2023-06-26T10:44:11;3.67;;;1.30;;
78612;SDS011;67933;51.060;3.638;2023-06-26T10:46:51;3.45;;;1.30;;
78612;SDS011;67933;51.060;3.638;2023-06-26T10:51:50;2.45;;;1.27;;
78612;SDS011;67933;51.060;3.638;2023-06-26T10:54:16;3.33;;;1.20;;
78612;SDS011;67933;51.060;3.638;2023-06-26T10:56:46;4.47;;;1.42;;
78612;SDS011;67933;51.060;3.638;2023-06-26T11:01:40;2.83;;;1.27;;
78612;SDS011;67933;51.060;3.638;2023-06-26T11:04:11;2.80;;;1.20;;
78612;SDS011;67933;51.060;3.638;2023-06-26T11:06:39;3.42;;;1.30;;
78612;SDS011;67933;51.060;3.638;2023-06-26T11:14:22;3.95;;;1.30;;
78612;SDS011;67933;51.060;3.638;2023-06-26T11:16:49;4.63;;;1.52;;
78612;SDS011;67933;51.060;3.638;2023-06-26T11:19:16;2.47;;;1.15;;
78612;SDS011;67933;51.060;3.638;2023-06-26T11:21:43;3.33;;;0.93;;
78612;SDS011;67933;51.060;3.638;2023-06-26T11:24:09;3.30;;;1.35;;
78612;SDS011;67933;51.060;3.638;2023-06-26T11:26:39;3.78;;;1.27;;
78612;SDS011;67933;51.060;3.638;2023-06-26T11:29:06;1.90;;;1.10;;
78612;SDS011;67933;51.060;3.638;2023-06-26T11:31:35;1.95;;;1.23;;
78612;SDS011;67933;51.060;3.638;2023-06-26T11:34:03;2.42;;;1.10;;
78612;SDS011;67933;51.060;3.638;2023-06-26T11:36:31;2.58;;;1.20;;
78612;SDS011;67933;51.060;3.638;2023-06-26T11:39:00;5.78;;;1.40;;
78612;SDS011;67933;51.060;3.638;2023-06-26T11:41:29;3.22;;;1.20;;
78612;SDS011;67933;51.060;3.638;2023-06-26T11:43:55;4.47;;;1.15;;
78612;SDS011;67933;51.060;3.638;2023-06-26T11:46:25;5.53;;;1.20;;
78612;SDS011;67933;51.060;3.638;2023-06-26T11:48:51;3.03;;;1.27;;
78612;SDS011;67933;51.060;3.638;2023-06-26T11:51:17;3.88;;;1.52;;
78612;SDS011;67933;51.060;3.638;2023-06-26T11:53:45;2.17;;;1.23;;
78612;SDS011;67933;51.060;3.638;2023-06-26T11:56:12;2.00;;;1.27;;
78612;SDS011;67933;51.060;3.638;2023-06-26T12:01:33;4.13;;;1.50;;
78612;SDS011;67933;51.060;3.638;2023-06-26T12:04:08;5.03;;;1.30;;
78612;SDS011;67933;51.060;3.638;2023-06-26T12:06:36;2.78;;;1.35;;
78612;SDS011;67933;51.060;3.638;2023-06-26T12:09:04;4.97;;;1.60;;
78612;SDS011;67933;51.060;3.638;2023-06-26T12:11:34;3.70;;;1.08;;
78612;SDS011;67933;51.060;3.638;2023-06-26T12:14:00;5.05;;;1.30;;
78612;SDS011;67933;51.060;3.638;2023-06-26T12:16:29;4.13;;;1.20;;
78612;SDS011;67933;51.060;3.638;2023-06-26T12:18:59;5.25;;;1.48;;
78612;SDS011;67933;51.060;3.638;2023-06-26T12:21:43;2.38;;;1.23;;
78612;SDS011;67933;51.060;3.638;2023-06-26T12:24:17;4.30;;;1.10;;
78612;SDS011;67933;51.060;3.638;2023-06-26T12:26:51;1.63;;;1.02;;
78612;SDS011;67933;51.060;3.638;2023-06-26T12:29:19;2.78;;;1.35;;
78612;SDS011;67933;51.060;3.638;2023-06-26T12:31:46;4.13;;;1.20;;
78612;SDS011;67933;51.060;3.638;2023-06-26T12:34:15;5.30;;;1.75;;
78612;SDS011;67933;51.060;3.638;2023-06-26T12:36:47;4.07;;;1.48;;
78612;SDS011;67933;51.060;3.638;2023-06-26T12:39:15;4.22;;;1.50;;
78612;SDS011;67933;51.060;3.638;2023-06-26T12:41:45;2.55;;;1.10;;
78612;SDS011;67933;51.060;3.638;2023-06-26T12:44:20;2.85;;;1.20;;
78612;SDS011;67933;51.060;3.638;2023-06-26T12:46:59;3.25;;;1.40;;
78612;SDS011;67933;51.060;3.638;2023-06-26T12:49:51;3.50;;;1.45;;
78612;SDS011;67933;51.060;3.638;2023-06-26T12:52:16;3.92;;;1.50;;
78612;SDS011;67933;51.060;3.638;2023-06-26T12:54:44;3.20;;;1.23;;
78612;SDS011;67933;51.060;3.638;2023-06-26T12:57:09;4.03;;;1.40;;
78612;SDS011;67933;51.060;3.638;2023-06-26T12:59:38;2.78;;;1.38;;
78612;SDS011;67933;51.060;3.638;2023-06-26T13:02:04;5.60;;;1.45;;
78612;SDS011;67933;51.060;3.638;2023-06-26T13:04:29;3.15;;;1.13;;
78612;SDS011;67933;51.060;3.638;2023-06-26T13:06:55;3.97;;;1.38;;
78612;SDS011;67933;51.060;3.638;2023-06-26T13:09:21;2.45;;;1.02;;
78612;SDS011;67933;51.060;3.638;2023-06-26T13:11:48;3.47;;;1.25;;
78612;SDS011;67933;51.060;3.638;2023-06-26T13:14:14;2.97;;;1.38;;
78612;SDS011;67933;51.060;3.638;2023-06-26T13:16:39;3.13;;;1.20;;
78612;SDS011;67933;51.060;3.638;2023-06-26T13:19:05;4.00;;;1.40;;
78612;SDS011;67933;51.060;3.638;2023-06-26T13:21:31;2.05;;;1.13;;
78612;SDS011;67933;51.060;3.638;2023-06-26T13:23:56;3.72;;;1.20;;
78612;SDS011;67933;51.060;3.638;2023-06-26T13:26:23;2.33;;;1.02;;
78612;SDS011;67933;51.060;3.638;2023-06-26T13:28:48;1.73;;;1.10;;
78612;SDS011;67933;51.060;3.638;2023-06-26T13:31:14;2.33;;;1.20;;
78612;SDS011;67933;51.060;3.638;2023-06-26T13:33:40;1.77;;;1.10;;
78612;SDS011;67933;51.060;3.638;2023-06-26T13:36:05;3.30;;;1.30;;
78612;SDS011;67933;51.060;3.638;2023-06-26T13:38:32;3.78;;;1.00;;
78612;SDS011;67933;51.060;3.638;2023-06-26T13:40:58;2.08;;;0.95;;
78612;SDS011;67933;51.060;3.638;2023-06-26T13:43:25;3.03;;;1.27;;
78612;SDS011;67933;51.060;3.638;2023-06-26T13:45:52;4.32;;;0.90;;
78612;SDS011;67933;51.060;3.638;2023-06-26T13:48:18;2.35;;;0.85;;
78612;SDS011;67933;51.060;3.638;2023-06-26T13:50:43;2.28;;;0.93;;
78612;SDS011;67933;51.060;3.638;2023-06-26T13:53:09;1.70;;;1.10;;
78612;SDS011;67933;51.060;3.638;2023-06-26T13:55:34;4.75;;;1.20;;
78612;SDS011;67933;51.060;3.638;2023-06-26T13:58:00;4.60;;;1.48;;
78612;SDS011;67933;51.060;3.638;2023-06-26T14:00:30;4.25;;;1.20;;
78612;SDS011;67933;51.060;3.638;2023-06-26T14:02:58;2.97;;;1.10;;
78612;SDS011;67933;51.060;3.638;2023-06-26T14:05:34;2.53;;;1.00;;
78612;SDS011;67933;51.060;3.638;2023-06-26T14:08:01;2.92;;;1.10;;
78612;SDS011;67933;51.060;3.638;2023-06-26T14:10:28;3.22;;;1.15;;
78612;SDS011;67933;51.060;3.638;2023-06-26T14:12:53;1.30;;;0.93;;
78612;SDS011;67933;51.060;3.638;2023-06-26T14:15:19;6.55;;;1.48;;
78612;SDS011;67933;51.060;3.638;2023-06-26T14:17:44;3.72;;;1.27;;
78612;SDS011;67933;51.060;3.638;2023-06-26T14:20:10;4.75;;;1.60;;
78612;SDS011;67933;51.060;3.638;2023-06-26T14:22:38;3.10;;;1.08;;
78612;SDS011;67933;51.060;3.638;2023-06-26T14:25:04;5.45;;;1.58;;
78612;SDS011;67933;51.060;3.638;2023-06-26T14:27:31;3.70;;;1.30;;
78612;SDS011;67933;51.060;3.638;2023-06-26T14:29:56;3.78;;;1.42;;
78612;SDS011;67933;51.060;3.638;2023-06-26T14:32:21;3.25;;;1.25;;
78612;SDS011;67933;51.060;3.638;2023-06-26T14:34:47;5.22;;;2.03;;
78612;SDS011;67933;51.060;3.638;2023-06-26T14:37:12;4.88;;;1.45;;
78612;SDS011;67933;51.060;3.638;2023-06-26T14:39:37;4.03;;;1.50;;
78612;SDS011;67933;51.060;3.638;2023-06-26T14:42:04;3.83;;;1.52;;
78612;SDS011;67933;51.060;3.638;2023-06-26T14:44:29;2.72;;;1.10;;
78612;SDS011;67933;51.060;3.638;2023-06-26T14:46:55;1.73;;;0.95;;
78612;SDS011;67933;51.060;3.638;2023-06-26T14:49:20;2.05;;;1.10;;
78612;SDS011;67933;51.060;3.638;2023-06-26T14:51:46;2.85;;;0.93;;
78612;SDS011;67933;51.060;3.638;2023-06-26T14:54:11;1.88;;;1.20;;
78612;SDS011;67933;51.060;3.638;2023-06-26T14:56:36;4.13;;;1.42;;
78612;SDS011;67933;51.060;3.638;2023-06-26T14:59:02;4.03;;;1.10;;
78612;SDS011;67933;51.060;3.638;2023-06-26T15:01:27;2.60;;;1.20;;
78612;SDS011;67933;51.060;3.638;2023-06-26T15:03:53;3.25;;;1.13;;